UAE6M DGAA-DIAP
Flight info
| Callsign | UAE6M |
|---|---|
| Flight time | 0h 38m |
| Altitude | 24000 |
| Route | MIMTI1D MIMTI B600 TEMBI DCT ONESI TAVAL2D |
| Aircraft | B77W/H-SDE1E2E3FGHIJ1J2J3J4J5J6J7RWY/LB1D1 |
Departure
| Time | 2026-05-05 16:46 |
|---|---|
| Airport | Kotoka International Airport (DGAA) |
Arrival
| Time | 2026-05-05 17:24 |
|---|---|
| Airport | Félix-Houphouët-Boigny International Airport (DIAP) |
| Time | Latitude | Longitude | Altitude | Speed | Heading |
|---|---|---|---|---|---|
| 2026-05-05 16:25 | 5.60160 | -0.17186 | 216 ft | 0 kts | 292° |
| 2026-05-05 16:38 | 5.60155 | -0.17172 | 221 ft | 4 kts | 292° |
| 2026-05-05 16:38 | 5.60146 | -0.17150 | 217 ft | 2 kts | 292° |
| 2026-05-05 16:38 | 5.60132 | -0.17129 | 218 ft | 4 kts | 322° |
| 2026-05-05 16:39 | 5.60109 | -0.17117 | 213 ft | 4 kts | 352° |
| 2026-05-05 16:39 | 5.60082 | -0.17117 | 212 ft | 4 kts | 9° |
| 2026-05-05 16:39 | 5.60056 | -0.17123 | 215 ft | 4 kts | 21° |
| 2026-05-05 16:39 | 5.60050 | -0.17125 | 217 ft | 1 kts | 22° |
| 2026-05-05 16:41 | 5.60055 | -0.17123 | 214 ft | 7 kts | 22° |
| 2026-05-05 16:41 | 5.60161 | -0.17080 | 219 ft | 18 kts | 22° |
| 2026-05-05 16:41 | 5.60275 | -0.17034 | 222 ft | 18 kts | 22° |
| 2026-05-05 16:42 | 5.60388 | -0.16987 | 225 ft | 18 kts | 22° |
| 2026-05-05 16:42 | 5.60532 | -0.16927 | 228 ft | 31 kts | 22° |
| 2026-05-05 16:42 | 5.60703 | -0.16858 | 228 ft | 26 kts | 22° |
| 2026-05-05 16:42 | 5.60869 | -0.16790 | 227 ft | 26 kts | 22° |
| 2026-05-05 16:43 | 5.61036 | -0.16720 | 227 ft | 26 kts | 22° |
| 2026-05-05 16:43 | 5.61203 | -0.16651 | 229 ft | 26 kts | 22° |
| 2026-05-05 16:43 | 5.61370 | -0.16582 | 227 ft | 26 kts | 22° |
| 2026-05-05 16:43 | 5.61537 | -0.16514 | 224 ft | 26 kts | 22° |
| 2026-05-05 16:44 | 5.61602 | -0.16375 | 221 ft | 26 kts | 110° |
| 2026-05-05 16:44 | 5.61494 | -0.16324 | 225 ft | 13 kts | 198° |
| 2026-05-05 16:44 | 5.61475 | -0.16331 | 226 ft | 0 kts | 200° |
| 2026-05-05 16:45 | 5.61441 | -0.16344 | 228 ft | 20 kts | 200° |
| 2026-05-05 16:46 | 5.61056 | -0.16499 | 229 ft | 101 kts | 202° |
| 2026-05-05 16:46 | 5.60184 | -0.16860 | 234 ft | 166 kts | 200° |
| 2026-05-05 16:46 | 5.59097 | -0.17331 | 891 ft | 171 kts | 202° |
| 2026-05-05 16:46 | 5.58180 | -0.18049 | 1700 ft | 176 kts | 236° |
| 2026-05-05 16:47 | 5.57844 | -0.19252 | 2449 ft | 191 kts | 263° |
| 2026-05-05 16:47 | 5.57775 | -0.20701 | 2818 ft | 225 kts | 264° |
| 2026-05-05 16:47 | 5.57708 | -0.22321 | 3535 ft | 238 kts | 264° |
| 2026-05-05 16:47 | 5.57641 | -0.24008 | 4508 ft | 245 kts | 266° |
| 2026-05-05 16:48 | 5.57576 | -0.25747 | 5408 ft | 255 kts | 266° |
| 2026-05-05 16:48 | 5.57513 | -0.27607 | 5985 ft | 281 kts | 267° |
| 2026-05-05 16:48 | 5.57450 | -0.29620 | 6730 ft | 294 kts | 268° |
| 2026-05-05 16:48 | 5.57387 | -0.31697 | 7662 ft | 302 kts | 268° |
| 2026-05-05 16:49 | 5.57321 | -0.33834 | 8546 ft | 311 kts | 268° |
| 2026-05-05 16:49 | 5.57254 | -0.36033 | 9456 ft | 319 kts | 268° |
| 2026-05-05 16:49 | 5.57185 | -0.38290 | 10336 ft | 327 kts | 268° |
| 2026-05-05 16:49 | 5.57114 | -0.40576 | 11306 ft | 329 kts | 268° |
| 2026-05-05 16:50 | 5.57043 | -0.42881 | 12329 ft | 331 kts | 269° |
| 2026-05-05 16:50 | 5.56970 | -0.45203 | 13298 ft | 335 kts | 269° |
| 2026-05-05 16:50 | 5.56897 | -0.47561 | 14193 ft | 340 kts | 269° |
| 2026-05-05 16:50 | 5.56822 | -0.49938 | 15135 ft | 342 kts | 269° |
| 2026-05-05 16:51 | 5.56747 | -0.52325 | 16136 ft | 342 kts | 269° |
| 2026-05-05 16:51 | 5.56671 | -0.54719 | 17109 ft | 344 kts | 269° |
| 2026-05-05 16:51 | 5.56595 | -0.57134 | 18020 ft | 349 kts | 269° |
| 2026-05-05 16:51 | 5.56518 | -0.59583 | 18818 ft | 353 kts | 269° |
| 2026-05-05 16:52 | 5.56439 | -0.62061 | 19638 ft | 357 kts | 269° |
| 2026-05-05 16:52 | 5.56360 | -0.64558 | 20486 ft | 359 kts | 269° |
| 2026-05-05 16:52 | 5.56280 | -0.67074 | 21284 ft | 364 kts | 269° |
| 2026-05-05 16:52 | 5.56199 | -0.69632 | 22058 ft | 369 kts | 269° |
| 2026-05-05 16:53 | 5.56116 | -0.72220 | 22826 ft | 374 kts | 270° |
| 2026-05-05 16:53 | 5.56033 | -0.74842 | 23628 ft | 377 kts | 270° |
| 2026-05-05 16:53 | 5.55948 | -0.77482 | 24326 ft | 380 kts | 269° |
| 2026-05-05 16:53 | 5.55863 | -0.80138 | 25041 ft | 382 kts | 269° |
| 2026-05-05 16:54 | 5.55777 | -0.82826 | 25670 ft | 388 kts | 269° |
| 2026-05-05 16:54 | 5.55690 | -0.85553 | 26311 ft | 393 kts | 269° |
| 2026-05-05 16:54 | 5.55601 | -0.88308 | 27004 ft | 396 kts | 269° |
| 2026-05-05 16:54 | 5.55512 | -0.91074 | 27653 ft | 396 kts | 269° |
| 2026-05-05 16:55 | 5.55421 | -0.93864 | 27915 ft | 405 kts | 269° |
| 2026-05-05 16:55 | 5.55329 | -0.96757 | 27904 ft | 425 kts | 269° |
| 2026-05-05 16:55 | 5.55233 | -0.99751 | 27908 ft | 446 kts | 269° |
| 2026-05-05 16:55 | 5.55131 | -1.02930 | 27907 ft | 465 kts | 269° |
| 2026-05-05 16:56 | 5.55025 | -1.06228 | 27902 ft | 479 kts | 269° |
| 2026-05-05 16:56 | 5.54915 | -1.09580 | 27898 ft | 483 kts | 269° |
| 2026-05-05 16:56 | 5.54803 | -1.12963 | 27894 ft | 485 kts | 269° |
| 2026-05-05 16:56 | 5.54692 | -1.16347 | 27890 ft | 486 kts | 269° |
| 2026-05-05 16:57 | 5.54580 | -1.19740 | 27887 ft | 486 kts | 269° |
| 2026-05-05 16:57 | 5.54468 | -1.23126 | 27885 ft | 486 kts | 269° |
| 2026-05-05 16:57 | 5.54356 | -1.26520 | 27887 ft | 486 kts | 269° |
| 2026-05-05 16:57 | 5.54245 | -1.29908 | 27889 ft | 486 kts | 269° |
| 2026-05-05 16:58 | 5.54133 | -1.33295 | 27886 ft | 485 kts | 269° |
| 2026-05-05 16:58 | 5.54021 | -1.36681 | 27882 ft | 485 kts | 269° |
| 2026-05-05 16:58 | 5.53910 | -1.40064 | 27886 ft | 485 kts | 269° |
| 2026-05-05 16:58 | 5.53798 | -1.43433 | 27889 ft | 484 kts | 269° |
| 2026-05-05 16:59 | 5.53686 | -1.46807 | 27887 ft | 484 kts | 269° |
| 2026-05-05 16:59 | 5.53574 | -1.50180 | 27884 ft | 484 kts | 269° |
| 2026-05-05 16:59 | 5.53462 | -1.53551 | 27894 ft | 484 kts | 269° |
| 2026-05-05 16:59 | 5.53350 | -1.56925 | 27894 ft | 483 kts | 269° |
| 2026-05-05 17:00 | 5.53238 | -1.60296 | 27890 ft | 483 kts | 269° |
| 2026-05-05 17:00 | 5.53125 | -1.63670 | 27892 ft | 483 kts | 269° |
| 2026-05-05 17:00 | 5.53012 | -1.67036 | 27895 ft | 483 kts | 269° |
| 2026-05-05 17:00 | 5.52899 | -1.70408 | 27893 ft | 483 kts | 269° |
| 2026-05-05 17:01 | 5.52786 | -1.73780 | 27888 ft | 484 kts | 269° |
| 2026-05-05 17:01 | 5.52672 | -1.77154 | 27888 ft | 484 kts | 269° |
| 2026-05-05 17:01 | 5.52558 | -1.80528 | 27889 ft | 484 kts | 269° |
| 2026-05-05 17:01 | 5.52444 | -1.83903 | 27887 ft | 484 kts | 269° |
| 2026-05-05 17:02 | 5.52330 | -1.87281 | 27887 ft | 484 kts | 269° |
| 2026-05-05 17:02 | 5.52215 | -1.90654 | 27889 ft | 484 kts | 269° |
| 2026-05-05 17:02 | 5.52101 | -1.94030 | 27888 ft | 484 kts | 269° |
| 2026-05-05 17:02 | 5.51988 | -1.97362 | 27887 ft | 484 kts | 269° |
| 2026-05-05 17:03 | 5.51873 | -2.00743 | 27887 ft | 484 kts | 269° |
| 2026-05-05 17:03 | 5.51756 | -2.04164 | 27888 ft | 484 kts | 269° |
| 2026-05-05 17:03 | 5.51642 | -2.07498 | 27889 ft | 484 kts | 269° |
| 2026-05-05 17:03 | 5.51526 | -2.10877 | 27886 ft | 484 kts | 269° |
| 2026-05-05 17:04 | 5.51411 | -2.14252 | 27885 ft | 483 kts | 269° |
| 2026-05-05 17:04 | 5.51295 | -2.17597 | 27875 ft | 476 kts | 269° |
| 2026-05-05 17:04 | 5.51181 | -2.20907 | 27882 ft | 476 kts | 269° |
| 2026-05-05 17:04 | 5.51067 | -2.24230 | 27889 ft | 477 kts | 269° |
| 2026-05-05 17:05 | 5.50991 | -2.26436 | 27894 ft | 478 kts | 269° |
| 2026-05-05 17:05 | 5.50876 | -2.29772 | 27890 ft | 478 kts | 269° |
| 2026-05-05 17:05 | 5.50761 | -2.33085 | 27575 ft | 474 kts | 269° |
| 2026-05-05 17:05 | 5.50645 | -2.36428 | 27009 ft | 470 kts | 269° |
| 2026-05-05 17:06 | 5.50533 | -2.39652 | 26450 ft | 467 kts | 269° |
| 2026-05-05 17:06 | 5.50421 | -2.42890 | 25908 ft | 463 kts | 269° |
| 2026-05-05 17:06 | 5.50308 | -2.46107 | 25370 ft | 459 kts | 268° |
| 2026-05-05 17:06 | 5.50197 | -2.49290 | 24840 ft | 456 kts | 268° |
| 2026-05-05 17:07 | 5.50086 | -2.52463 | 24318 ft | 453 kts | 268° |
| 2026-05-05 17:07 | 5.49976 | -2.55611 | 23821 ft | 450 kts | 268° |
| 2026-05-05 17:07 | 5.49867 | -2.58735 | 23307 ft | 446 kts | 268° |
| 2026-05-05 17:07 | 5.49759 | -2.61838 | 22742 ft | 443 kts | 268° |
| 2026-05-05 17:08 | 5.49650 | -2.64912 | 22190 ft | 440 kts | 268° |
| 2026-05-05 17:08 | 5.49543 | -2.67968 | 21671 ft | 436 kts | 268° |
| 2026-05-05 17:08 | 5.49436 | -2.71005 | 21131 ft | 434 kts | 268° |
| 2026-05-05 17:08 | 5.49329 | -2.74016 | 20597 ft | 431 kts | 268° |
| 2026-05-05 17:09 | 5.49224 | -2.77015 | 20078 ft | 429 kts | 268° |
| 2026-05-05 17:09 | 5.49118 | -2.79997 | 19577 ft | 426 kts | 268° |
| 2026-05-05 17:09 | 5.49013 | -2.82960 | 19091 ft | 424 kts | 268° |
| 2026-05-05 17:09 | 5.48908 | -2.85905 | 18610 ft | 421 kts | 268° |
| 2026-05-05 17:10 | 5.48804 | -2.88833 | 18128 ft | 419 kts | 268° |
| 2026-05-05 17:10 | 5.48700 | -2.91754 | 17580 ft | 417 kts | 268° |
| 2026-05-05 17:10 | 5.48597 | -2.94654 | 17059 ft | 415 kts | 268° |
| 2026-05-05 17:10 | 5.48494 | -2.97538 | 16556 ft | 412 kts | 268° |
| 2026-05-05 17:11 | 5.48392 | -3.00402 | 16046 ft | 410 kts | 268° |
| 2026-05-05 17:11 | 5.48290 | -3.03258 | 15537 ft | 408 kts | 268° |
| 2026-05-05 17:11 | 5.48189 | -3.06098 | 15056 ft | 406 kts | 268° |
| 2026-05-05 17:11 | 5.48089 | -3.08887 | 14581 ft | 405 kts | 268° |
| 2026-05-05 17:12 | 5.47987 | -3.11704 | 14098 ft | 403 kts | 268° |
| 2026-05-05 17:12 | 5.47886 | -3.14512 | 13604 ft | 402 kts | 268° |
| 2026-05-05 17:12 | 5.47785 | -3.17306 | 13098 ft | 400 kts | 268° |
| 2026-05-05 17:12 | 5.47685 | -3.20085 | 12637 ft | 397 kts | 268° |
| 2026-05-05 17:13 | 5.47586 | -3.22842 | 12204 ft | 393 kts | 268° |
| 2026-05-05 17:13 | 5.47488 | -3.25571 | 11763 ft | 390 kts | 268° |
| 2026-05-05 17:13 | 5.47389 | -3.28283 | 11301 ft | 388 kts | 268° |
| 2026-05-05 17:13 | 5.47291 | -3.30983 | 10871 ft | 385 kts | 268° |
| 2026-05-05 17:14 | 5.47194 | -3.33657 | 10436 ft | 383 kts | 268° |
| 2026-05-05 17:14 | 5.47097 | -3.36323 | 10006 ft | 381 kts | 268° |
| 2026-05-05 17:14 | 5.47001 | -3.38969 | 9577 ft | 378 kts | 268° |
| 2026-05-05 17:14 | 5.46906 | -3.41587 | 9315 ft | 370 kts | 268° |
| 2026-05-05 17:15 | 5.46814 | -3.44114 | 9234 ft | 356 kts | 268° |
| 2026-05-05 17:15 | 5.46725 | -3.46559 | 9130 ft | 345 kts | 268° |
| 2026-05-05 17:15 | 5.46638 | -3.48948 | 8783 ft | 342 kts | 268° |
| 2026-05-05 17:15 | 5.46550 | -3.51326 | 8411 ft | 341 kts | 268° |
| 2026-05-05 17:16 | 5.46466 | -3.53651 | 8008 ft | 323 kts | 268° |
| 2026-05-05 17:16 | 5.46386 | -3.55837 | 7641 ft | 305 kts | 267° |
| 2026-05-05 17:16 | 5.46308 | -3.57957 | 7327 ft | 304 kts | 267° |
| 2026-05-05 17:16 | 5.46230 | -3.60079 | 6994 ft | 304 kts | 267° |
| 2026-05-05 17:17 | 5.46152 | -3.62195 | 6658 ft | 304 kts | 267° |
| 2026-05-05 17:17 | 5.46074 | -3.64319 | 6301 ft | 305 kts | 267° |
| 2026-05-05 17:17 | 5.45996 | -3.66448 | 5924 ft | 305 kts | 267° |
| 2026-05-05 17:17 | 5.45917 | -3.68574 | 5572 ft | 305 kts | 267° |
| 2026-05-05 17:18 | 5.45839 | -3.70699 | 5210 ft | 302 kts | 266° |
| 2026-05-05 17:18 | 5.45765 | -3.72727 | 4850 ft | 283 kts | 266° |
| 2026-05-05 17:18 | 5.45692 | -3.74692 | 4540 ft | 279 kts | 266° |
| 2026-05-05 17:18 | 5.45625 | -3.76556 | 4195 ft | 262 kts | 265° |
| 2026-05-05 17:19 | 5.45557 | -3.78383 | 3941 ft | 257 kts | 265° |
| 2026-05-05 17:19 | 5.45489 | -3.80168 | 3693 ft | 255 kts | 266° |
| 2026-05-05 17:19 | 5.45424 | -3.81895 | 3435 ft | 243 kts | 265° |
| 2026-05-05 17:19 | 5.45273 | -3.83519 | 3138 ft | 224 kts | 249° |
| 2026-05-05 17:20 | 5.44438 | -3.84728 | 3067 ft | 212 kts | 213° |
| 2026-05-05 17:20 | 5.43155 | -3.85458 | 3019 ft | 213 kts | 206° |
| 2026-05-05 17:20 | 5.41819 | -3.86091 | 2994 ft | 211 kts | 202° |
| 2026-05-05 17:20 | 5.40459 | -3.86665 | 2738 ft | 211 kts | 201° |
| 2026-05-05 17:21 | 5.39112 | -3.87221 | 2432 ft | 207 kts | 201° |
| 2026-05-05 17:21 | 5.37810 | -3.87757 | 2214 ft | 195 kts | 201° |
| 2026-05-05 17:21 | 5.36603 | -3.88256 | 1936 ft | 181 kts | 201° |
| 2026-05-05 17:22 | 5.34456 | -3.89143 | 1513 ft | 159 kts | 201° |
| 2026-05-05 17:22 | 5.33438 | -3.89563 | 1342 ft | 159 kts | 201° |
| 2026-05-05 17:22 | 5.32409 | -3.89989 | 1098 ft | 161 kts | 201° |
| 2026-05-05 17:22 | 5.31378 | -3.90416 | 907 ft | 157 kts | 201° |
| 2026-05-05 17:23 | 5.30405 | -3.90818 | 674 ft | 146 kts | 202° |
| 2026-05-05 17:23 | 5.29475 | -3.91205 | 461 ft | 146 kts | 202° |
| 2026-05-05 17:23 | 5.28526 | -3.91595 | 326 ft | 149 kts | 203° |
| 2026-05-05 17:23 | 5.27588 | -3.91981 | 101 ft | 137 kts | 203° |
| 2026-05-05 17:24 | 5.26791 | -3.92314 | 28 ft | 111 kts | 203° |
| 2026-05-05 17:24 | 5.26192 | -3.92559 | 29 ft | 75 kts | 202° |
| 2026-05-05 17:24 | 5.25812 | -3.92714 | 31 ft | 48 kts | 202° |
| 2026-05-05 17:24 | 5.25532 | -3.92831 | 31 ft | 26 kts | 202° |
| 2026-05-05 17:25 | 5.25470 | -3.92920 | 28 ft | 11 kts | 283° |
| 2026-05-05 17:25 | 5.25489 | -3.92970 | 27 ft | 12 kts | 290° |
| 2026-05-05 17:25 | 5.25455 | -3.93043 | 27 ft | 10 kts | 211° |
| 2026-05-05 17:25 | 5.25378 | -3.93078 | 28 ft | 15 kts | 203° |
| 2026-05-05 17:26 | 5.25340 | -3.93114 | 29 ft | 2 kts | 277° |
| 2026-05-05 17:26 | 5.25372 | -3.93150 | 29 ft | 12 kts | 302° |
| 2026-05-05 17:26 | 5.25386 | -3.93180 | 29 ft | 0 kts | 292° |
| 2026-05-05 17:39 | 5.25392 | -3.93193 | 29 ft | 0 kts | 292° |
| 2026-05-05 17:51 | 5.25386 | -3.93178 | 29 ft | 4 kts | 293° |
| 2026-05-05 17:51 | 5.25375 | -3.93153 | 27 ft | 3 kts | 293° |
| 2026-05-05 17:52 | 5.25368 | -3.93137 | 27 ft | 3 kts | 293° |